Vernalis, CA (95385)

4:12 AM PDT on September 05, 2015 (GMT -0700)
Skydive California | | Change Station
CLOSE
Current Station
Personal Weather Station
Location: Tracy, CA
Elevation: 20 ft
Nearby Weather Stations

Elev 20 ft 37.73 °N, 121.33 °W | Updated 5 seconds ago

Clear
Clear
50.9 °F
Feels Like 50.9 °F
N
2.0
Wind Variable Wind from SSW
Gusts 4.0 mph

Today
High -- | Low -- °F
--% Chance of Precip.
Yesterday
High -- | Low -- °F
Precip. -- in
6:38 AM 7:28 PM
Waning Gibbous, 49% visible
Pressure 29.88 in
Visibility 10.0 miles
Clouds Clear
Dew Point 45 °F
Humidity 80%
Rainfall 0.00 in
Snow Depth Not available.
UV 0 out of 12
Pollen 8.30 out of 12
Air Quality Not available.
Flu Activity Not available.
METAR KMOD 051053Z AUTO 34003KT 10SM CLR 14/08 A2988 RMK AO2 SLP117 T01390078
Pressure 29.88 in
Visibility 10.0 miles
Clouds Clear
Dew Point 45 °F
Humidity 80%
Rainfall 0.00 in
Snow Depth Not available.
UV 0 out of 12
Pollen 8.30 out of 12
Air Quality Not available.
Flu Activity Not available.
METAR KMOD 051053Z AUTO 34003KT 10SM CLR 14/08 A2988 RMK AO2 SLP117 T01390078

10-Day Weather Forecast

×

Almanac

Astronomy

Sep. 05, 2015 Rise Set
Actual Time
Civil Twilight
Nautical Twilight
Astronomical Twilight
Moon
Length of Visible Light
Length of Day
Tomorrow will be .
, % of the Moon is Illuminated

Today's Extremes

State Highs State Lows

Community

WunderPhotos

Upload Photos

1,852,445 photos uploaded!

WunderBlogs® & News

Nearby

Air Quality

  Air Quality AQ Index Pollutant
Not available.

Snow Depth

Station Depth Elevation

Earthquake Activity

City Distance Mag. Time & Date
Minimum magnitude displayed is 2.5.

Coastal Water Temperatures

Place Temperature

Stations

Nearby Weather Stations

Station Location Temp. Windchill Dew Point Humidity Wind Precip. Elev Updated Type